Time;durP1;ratioP1;P1;durP2;ratioP2;P2;SDS_P1;SDS_P2;PMS_P1;PMS_P2;Temp;Humidity;BMP_temperature;BMP_pressure;BME280_temperature;BME280_humidity;BME280_pressure;Samples;Min_cycle;Max_cycle;Signal;HPM_P1;HPM_P2
2022/11/07 00:02:09;;;;;;;7.38;2.55;;;11.20;99.90;;;;;;5060839;28;20373;-62
2022/11/07 00:04:35;;;;;;;6.97;2.53;;;11.20;99.90;;;;;;5056945;28;20081;-62
2022/11/07 00:07:01;;;;;;;7.63;2.53;;;11.20;99.90;;;;;;5054153;28;20033;-62
2022/11/07 00:09:27;;;;;;;6.78;1.80;;;11.30;99.90;;;;;;5050119;28;20083;-62
2022/11/07 00:11:52;;;;;;;7.20;2.38;;;11.30;99.90;;;;;;5058886;28;20392;-62
2022/11/07 00:14:18;;;;;;;7.38;2.83;;;11.30;99.90;;;;;;5053057;28;20030;-63
2022/11/07 00:16:45;;;;;;;6.45;2.45;;;11.20;99.90;;;;;;5051454;28;20044;-62
2022/11/07 00:19:13;;;;;;;7.28;2.03;;;11.30;99.90;;;;;;5052552;28;20055;-62
2022/11/07 00:21:38;;;;;;;8.20;2.50;;;11.30;99.90;;;;;;5051731;28;20473;-63
2022/11/07 00:24:05;;;;;;;8.13;2.33;;;11.40;99.90;;;;;;5059280;28;20098;-62
2022/11/07 00:26:30;;;;;;;6.45;2.08;;;11.40;99.90;;;;;;5051732;28;20025;-62
2022/11/07 00:28:59;;;;;;;6.75;2.22;;;11.40;99.90;;;;;;5057659;28;20461;-62
2022/11/07 00:31:25;;;;;;;6.97;2.40;;;11.40;99.90;;;;;;5054940;28;20071;-63
2022/11/07 00:33:51;;;;;;;8.02;2.65;;;11.40;99.90;;;;;;5077665;28;20048;-63
2022/11/07 00:36:25;;;;;;;4.20;1.75;;;11.40;99.90;;;;;;5067457;28;20021;-62
2022/11/07 00:38:51;;;;;;;6.18;2.60;;;11.40;99.90;;;;;;5061425;28;20017;-62
2022/11/07 00:41:17;;;;;;;14.10;2.28;;;11.40;99.90;;;;;;5063846;28;20056;-63
2022/11/07 00:43:43;;;;;;;8.65;3.00;;;11.40;99.90;;;;;;5055488;28;20083;-62
2022/11/07 00:46:10;;;;;;;5.00;2.00;;;11.40;99.90;;;;;;5071126;28;20024;-62
2022/11/07 00:48:36;;;;;;;10.23;1.88;;;11.40;99.90;;;;;;5057823;28;20025;-63
2022/11/07 00:51:13;;;;;;;6.03;1.98;;;11.40;99.90;;;;;;5051873;28;20031;-62
2022/11/07 00:53:39;;;;;;;6.70;1.83;;;11.40;99.90;;;;;;5063328;28;20025;-62
2022/11/07 00:56:07;;;;;;;9.40;2.60;;;11.40;99.90;;;;;;5063460;28;20095;-62
2022/11/07 00:58:34;;;;;;;11.27;3.05;;;11.40;99.90;;;;;;5053477;28;20044;-62
2022/11/07 01:01:18;;;;;;;8.50;1.85;;;11.40;99.90;;;;;;5053694;28;20025;-62
2022/11/07 01:06:30;;;;;;;8.43;2.42;;;11.40;99.90;;;;;;5057409;28;20062;-62
2022/11/07 01:08:57;;;;;;;4.93;1.83;;;11.40;99.90;;;;;;5059707;28;20036;-62
2022/11/07 01:11:25;;;;;;;6.65;1.92;;;11.40;99.90;;;;;;5069785;28;20024;-63
2022/11/07 01:14:00;;;;;;;8.57;2.40;;;11.50;99.90;;;;;;5055652;28;20384;-62
2022/11/07 01:16:27;;;;;;;5.68;1.70;;;11.40;99.90;;;;;;5057482;28;20103;-62
2022/11/07 01:18:53;;;;;;;5.53;2.00;;;11.40;99.90;;;;;;5059119;28;20136;-62
2022/11/07 01:21:19;;;;;;;7.60;1.80;;;11.40;99.90;;;;;;5058857;28;20112;-62
2022/11/07 01:23:45;;;;;;;7.50;2.25;;;11.30;99.90;;;;;;5060312;28;20036;-62
2022/11/07 01:26:12;;;;;;;5.05;1.45;;;11.40;99.90;;;;;;5059317;28;20039;-62
2022/11/07 01:28:38;;;;;;;6.85;1.90;;;11.30;99.90;;;;;;5065037;28;20037;-62
2022/11/07 01:31:06;;;;;;;7.22;1.70;;;11.30;99.90;;;;;;5055379;28;20017;-62
2022/11/07 01:33:32;;;;;;;9.60;2.60;;;11.30;99.90;;;;;;5058337;28;20343;-62
2022/11/07 01:36:02;;;;;;;13.43;2.95;;;11.30;99.90;;;;;;5056634;28;20078;-62
2022/11/07 01:38:28;;;;;;;5.90;1.65;;;11.20;99.90;;;;;;5062823;28;20040;-62
2022/11/07 01:43:45;;;;;;;4.95;1.58;;;11.20;99.90;;;;;;5056567;28;20195;-62
2022/11/07 01:46:11;;;;;;;7.75;2.10;;;11.20;99.90;;;;;;5053846;28;20024;-62
2022/11/07 01:48:38;;;;;;;4.72;1.80;;;11.20;99.90;;;;;;5054768;28;20025;-62
2022/11/07 01:51:04;;;;;;;5.72;2.55;;;11.20;99.90;;;;;;5059116;28;20013;-62
2022/11/07 01:53:30;;;;;;;8.18;1.80;;;11.20;99.90;;;;;;5059237;28;20040;-62
2022/11/07 01:55:56;;;;;;;8.48;1.80;;;11.20;99.90;;;;;;5061374;28;20060;-62
2022/11/07 01:58:21;;;;;;;5.90;2.05;;;11.20;99.90;;;;;;5054675;28;20029;-62
2022/11/07 02:00:47;;;;;;;8.90;3.45;;;11.20;99.90;;;;;;5066527;28;20020;-62
2022/11/07 02:03:16;;;;;;;12.70;2.58;;;11.20;99.90;;;;;;5072345;28;20107;-62
2022/11/07 02:05:45;;;;;;;5.32;2.03;;;11.20;99.90;;;;;;5057374;28;20431;-62
2022/11/07 02:08:13;;;;;;;6.95;3.20;;;11.20;99.90;;;;;;5068754;28;20029;-62
2022/11/07 02:10:40;;;;;;;7.38;2.08;;;11.20;99.90;;;;;;5063726;28;20025;-63
2022/11/07 02:13:07;;;;;;;8.00;1.98;;;11.20;99.90;;;;;;5056178;28;20021;-63
2022/11/07 02:15:33;;;;;;;8.02;2.22;;;11.20;99.90;;;;;;5066281;28;20028;-63
2022/11/07 02:18:00;;;;;;;7.90;1.80;;;11.20;99.90;;;;;;5062871;28;20040;-62
2022/11/07 02:20:26;;;;;;;5.35;2.20;;;11.20;99.90;;;;;;5056779;28;20473;-62
2022/11/07 02:22:58;;;;;;;8.95;1.90;;;11.20;99.90;;;;;;5054405;28;20044;-62
2022/11/07 02:25:24;;;;;;;9.30;2.45;;;11.20;99.90;;;;;;5060533;28;20035;-63
2022/11/07 02:27:54;;;;;;;5.32;1.88;;;11.20;99.90;;;;;;5056963;28;20017;-63
2022/11/07 02:30:33;;;;;;;7.28;1.90;;;11.20;99.90;;;;;;5056070;28;20481;-62
2022/11/07 02:32:59;;;;;;;9.30;2.50;;;11.20;99.90;;;;;;5039723;28;20614;-62
2022/11/07 02:35:36;;;;;;;7.95;2.05;;;11.20;99.90;;;;;;5051736;28;20041;-62
2022/11/07 02:38:09;;;;;;;7.55;1.92;;;11.20;99.90;;;;;;5057456;28;20508;-62
2022/11/07 02:40:35;;;;;;;10.73;2.65;;;11.20;99.90;;;;;;5053666;28;20029;-63
2022/11/07 02:43:03;;;;;;;8.80;2.10;;;11.20;99.90;;;;;;5054037;28;20128;-62
2022/11/07 02:45:32;;;;;;;7.97;1.80;;;11.20;99.90;;;;;;5057572;28;20081;-62
2022/11/07 02:47:57;;;;;;;7.20;2.10;;;11.20;99.90;;;;;;5064811;28;20105;-62
2022/11/07 02:50:23;;;;;;;8.80;1.70;;;11.20;99.90;;;;;;5050716;28;20029;-62
2022/11/07 02:52:49;;;;;;;9.70;2.38;;;11.20;99.90;;;;;;5055316;28;20029;-62
2022/11/07 02:55:15;;;;;;;13.05;2.15;;;11.20;99.90;;;;;;5059227;28;20021;-62
2022/11/07 02:57:41;;;;;;;6.75;2.10;;;11.30;99.90;;;;;;5063175;28;20017;-62
2022/11/07 03:00:09;;;;;;;5.25;1.73;;;11.30;99.90;;;;;;5052399;28;20492;-62
2022/11/07 03:02:35;;;;;;;6.75;1.92;;;11.30;99.90;;;;;;5057950;28;20082;-62
2022/11/07 03:05:00;;;;;;;10.05;1.75;;;11.30;99.90;;;;;;5056975;28;20153;-62
2022/11/07 03:07:26;;;;;;;7.10;2.05;;;11.30;99.90;;;;;;5080607;28;20476;-62
2022/11/07 03:09:51;;;;;;;5.50;2.20;;;11.30;99.90;;;;;;5060071;28;20036;-62
2022/11/07 03:12:17;;;;;;;8.02;2.00;;;11.30;99.90;;;;;;5057171;28;20032;-62
2022/11/07 03:14:43;;;;;;;10.10;2.80;;;11.40;99.90;;;;;;5054087;28;20456;-63
2022/11/07 03:17:08;;;;;;;7.82;1.88;;;11.40;99.90;;;;;;5056931;28;20020;-62
2022/11/07 03:19:34;;;;;;;7.32;2.00;;;11.40;99.90;;;;;;5058519;28;20483;-62
2022/11/07 03:21:59;;;;;;;8.63;2.30;;;11.40;99.90;;;;;;5079368;28;20044;-62
2022/11/07 03:24:25;;;;;;;12.18;2.88;;;11.40;99.90;;;;;;5060119;28;20060;-62
2022/11/07 03:26:50;;;;;;;9.15;2.40;;;11.40;99.90;;;;;;5058610;28;20079;-62
2022/11/07 03:29:16;;;;;;;14.70;2.25;;;11.40;99.90;;;;;;5057201;28;20063;-62
2022/11/07 03:31:41;;;;;;;7.78;1.80;;;11.40;99.90;;;;;;5059569;28;20043;-62
2022/11/07 03:34:07;;;;;;;8.40;2.40;;;11.40;99.90;;;;;;5057123;28;20092;-63
2022/11/07 03:36:33;;;;;;;7.28;2.00;;;11.40;99.90;;;;;;5055421;28;20032;-62
2022/11/07 03:38:58;;;;;;;5.22;1.70;;;11.40;99.90;;;;;;5055139;28;20068;-63
2022/11/07 03:41:24;;;;;;;9.32;2.00;;;11.40;99.90;;;;;;5067400;28;20055;-62
2022/11/07 03:43:49;;;;;;;8.00;2.20;;;11.40;99.90;;;;;;5060755;28;20052;-62
2022/11/07 03:46:15;;;;;;;8.30;1.80;;;11.40;99.90;;;;;;5056554;28;20127;-63
2022/11/07 03:48:41;;;;;;;7.47;2.10;;;11.50;99.90;;;;;;5064892;28;20487;-62
2022/11/07 03:51:08;;;;;;;7.88;1.83;;;11.40;99.90;;;;;;5048189;28;20025;-63
2022/11/07 03:53:34;;;;;;;12.15;2.72;;;11.40;99.90;;;;;;5052653;28;20036;-62
2022/11/07 03:56:06;;;;;;;15.25;2.17;;;11.50;99.90;;;;;;5053003;28;20021;-62
2022/11/07 03:58:31;;;;;;;13.05;2.03;;;11.50;99.90;;;;;;5058773;28;20028;-63
2022/11/07 04:00:57;;;;;;;8.80;1.80;;;11.50;99.90;;;;;;5055217;28;20440;-62
2022/11/07 04:03:22;;;;;;;12.00;2.17;;;11.50;99.90;;;;;;5056352;28;20419;-63
2022/11/07 04:05:48;;;;;;;11.52;1.85;;;11.50;99.90;;;;;;5052503;28;20435;-62
2022/11/07 04:08:13;;;;;;;10.05;2.05;;;11.50;99.90;;;;;;5055693;28;20473;-62
2022/11/07 04:10:39;;;;;;;11.43;2.30;;;11.50;99.90;;;;;;5052764;28;20476;-62
2022/11/07 04:18:53;;;;;;;14.05;1.77;;;11.50;99.90;;;;;;5029923;28;20088;-62
2022/11/07 04:21:19;;;;;;;10.20;2.42;;;11.50;99.90;;;;;;5029996;28;20167;-63
2022/11/07 04:23:45;;;;;;;10.38;2.00;;;11.50;99.90;;;;;;5043859;28;20449;-62
2022/11/07 04:28:55;;;;;;;12.43;2.50;;;11.50;99.90;;;;;;5054168;28;20074;-62
2022/11/07 04:31:21;;;;;;;8.40;1.90;;;11.50;99.90;;;;;;5055498;28;20327;-63
2022/11/07 04:33:46;;;;;;;12.90;3.08;;;11.60;99.90;;;;;;5059784;28;20536;-62
2022/11/07 04:36:12;;;;;;;9.57;2.08;;;11.60;99.90;;;;;;5059800;28;20032;-62
2022/11/07 04:38:37;;;;;;;11.30;1.98;;;11.60;99.90;;;;;;5058355;28;20406;-62
2022/11/07 04:41:03;;;;;;;12.43;2.10;;;11.60;99.90;;;;;;5057054;28;20025;-63
2022/11/07 04:43:29;;;;;;;14.85;2.88;;;11.60;99.90;;;;;;5069410;28;20088;-62
2022/11/07 04:45:54;;;;;;;10.43;1.65;;;11.60;99.90;;;;;;5056504;28;20059;-62
2022/11/07 04:48:20;;;;;;;9.82;2.47;;;11.60;99.90;;;;;;5054163;28;20097;-62
2022/11/07 04:50:46;;;;;;;8.80;2.38;;;11.70;99.90;;;;;;5054945;28;20021;-63
2022/11/07 04:53:13;;;;;;;8.40;1.80;;;11.60;99.90;;;;;;5055917;28;20025;-62
2022/11/07 04:55:39;;;;;;;12.93;2.10;;;11.70;99.90;;;;;;5054027;28;20036;-62
2022/11/07 04:58:05;;;;;;;7.65;1.55;;;11.70;99.90;;;;;;5066557;28;20145;-62
2022/11/07 05:00:30;;;;;;;8.88;1.95;;;11.70;99.90;;;;;;5057537;28;20033;-62
2022/11/07 05:02:56;;;;;;;13.05;2.50;;;11.70;99.90;;;;;;5057720;28;20020;-62
2022/11/07 05:05:21;;;;;;;12.05;2.22;;;11.70;99.90;;;;;;5061084;28;20511;-63
2022/11/07 05:07:47;;;;;;;12.02;2.33;;;11.70;99.90;;;;;;5068297;28;20029;-63
2022/11/07 05:10:27;;;;;;;11.98;2.50;;;11.70;99.90;;;;;;5054163;28;20526;-62
2022/11/07 05:12:55;;;;;;;12.13;2.50;;;11.70;99.90;;;;;;5052554;28;20070;-63
2022/11/07 05:15:21;;;;;;;12.05;2.25;;;11.60;99.90;;;;;;5052955;28;20033;-62
2022/11/07 05:17:47;;;;;;;12.93;2.22;;;11.60;99.90;;;;;;5058902;28;20480;-62
2022/11/07 05:20:31;;;;;;;10.48;2.78;;;11.60;99.90;;;;;;5052277;28;20035;-62
2022/11/07 05:23:16;;;;;;;12.80;2.75;;;11.70;99.90;;;;;;5057403;28;20025;-62
2022/11/07 05:25:45;;;;;;;12.52;2.25;;;11.60;99.90;;;;;;5053898;28;20078;-62
2022/11/07 05:28:13;;;;;;;13.50;2.88;;;11.60;99.90;;;;;;5056649;28;20017;-63
2022/11/07 05:30:40;;;;;;;9.80;2.63;;;11.60;99.90;;;;;;5053363;28;20489;-62
2022/11/07 05:33:10;;;;;;;13.27;2.75;;;11.60;99.90;;;;;;5055566;28;20036;-62
2022/11/07 05:35:36;;;;;;;11.30;1.95;;;11.60;99.90;;;;;;5061382;28;20131;-63
2022/11/07 05:38:02;;;;;;;11.88;2.47;;;11.60;99.90;;;;;;5062674;28;20115;-63
2022/11/07 05:40:28;;;;;;;12.77;1.80;;;11.60;99.90;;;;;;5060537;28;20024;-63
2022/11/07 05:43:02;;;;;;;10.70;1.80;;;11.60;99.90;;;;;;5058802;28;20045;-62
2022/11/07 05:45:29;;;;;;;12.80;1.98;;;11.60;99.90;;;;;;5056618;28;20555;-63
2022/11/07 05:47:59;;;;;;;10.35;2.40;;;11.60;99.90;;;;;;5055977;28;20544;-62
2022/11/07 05:50:26;;;;;;;11.23;2.20;;;11.60;99.90;;;;;;5051655;28;20056;-63
2022/11/07 05:52:52;;;;;;;10.18;2.45;;;11.60;99.90;;;;;;5058625;28;20056;-62
2022/11/07 05:55:17;;;;;;;14.55;1.98;;;11.60;99.90;;;;;;5057923;28;20448;-62
2022/11/07 05:57:43;;;;;;;13.63;2.08;;;11.60;99.90;;;;;;5069649;28;20025;-62
2022/11/07 06:00:09;;;;;;;14.93;2.38;;;11.70;99.90;;;;;;5057930;28;20033;-62
2022/11/07 06:02:34;;;;;;;15.70;2.40;;;11.70;99.90;;;;;;5061070;28;20095;-63
2022/11/07 06:05:00;;;;;;;14.15;1.92;;;11.70;99.90;;;;;;5067429;28;20587;-63
2022/11/07 06:07:25;;;;;;;11.48;2.10;;;11.80;99.90;;;;;;5070640;28;20017;-62
2022/11/07 06:09:51;;;;;;;13.35;2.33;;;11.80;99.90;;;;;;5059324;28;20028;-63
2022/11/07 06:12:16;;;;;;;9.38;1.80;;;11.70;99.90;;;;;;5061792;28;20017;-62
2022/11/07 06:14:42;;;;;;;10.88;2.00;;;11.80;99.90;;;;;;5061595;28;20551;-63
2022/11/07 06:17:08;;;;;;;10.70;2.25;;;11.80;99.90;;;;;;5058394;28;20468;-63
2022/11/07 06:19:33;;;;;;;10.93;2.75;;;11.70;99.90;;;;;;5060201;28;20033;-62
2022/11/07 06:21:59;;;;;;;13.00;2.60;;;11.80;99.90;;;;;;5063455;28;20085;-62
2022/11/07 06:24:25;;;;;;;11.73;2.33;;;11.80;99.90;;;;;;5061907;28;20031;-62
2022/11/07 06:26:50;;;;;;;7.88;1.80;;;11.80;99.90;;;;;;5073653;28;20115;-62
2022/11/07 06:29:16;;;;;;;12.02;2.58;;;11.80;99.90;;;;;;5072025;28;20035;-63
2022/11/07 06:31:44;;;;;;;11.32;1.83;;;11.70;99.90;;;;;;5086198;28;20024;-63
2022/11/07 06:34:09;;;;;;;13.68;2.03;;;11.70;99.90;;;;;;5071184;28;20052;-62
2022/11/07 06:36:35;;;;;;;13.07;2.35;;;11.70;99.90;;;;;;5067013;28;20061;-62
2022/11/07 06:39:00;;;;;;;13.48;2.25;;;11.80;99.90;;;;;;5069496;28;20021;-62
2022/11/07 06:41:26;;;;;;;12.93;1.92;;;11.70;99.90;;;;;;5068691;28;20032;-62
2022/11/07 06:43:51;;;;;;;13.82;2.65;;;11.70;99.90;;;;;;5066570;28;20059;-62
2022/11/07 06:46:18;;;;;;;8.73;2.08;;;11.70;99.90;;;;;;5071633;28;20491;-62
2022/11/07 06:48:44;;;;;;;11.68;1.80;;;11.70;99.90;;;;;;5062298;28;20022;-63
2022/11/07 06:51:10;;;;;;;11.27;2.13;;;11.70;99.90;;;;;;5071214;28;20025;-62
2022/11/07 06:53:37;;;;;;;11.90;1.85;;;11.70;99.90;;;;;;5073319;28;20028;-62
2022/11/07 06:56:09;;;;;;;11.30;1.77;;;11.70;99.90;;;;;;5072706;28;20055;-62
2022/11/07 06:58:35;;;;;;;9.77;1.80;;;11.80;99.90;;;;;;5073329;28;20032;-63
2022/11/07 07:01:02;;;;;;;8.95;1.60;;;11.80;99.90;;;;;;5072206;28;20035;-63
2022/11/07 07:03:29;;;;;;;14.65;2.03;;;11.80;99.90;;;;;;5073392;28;20077;-62
2022/11/07 07:05:58;;;;;;;8.27;1.92;;;11.90;99.90;;;;;;5072703;28;20020;-63
2022/11/07 07:08:24;;;;;;;11.63;2.25;;;11.90;99.90;;;;;;5071324;28;20025;-62
2022/11/07 07:10:49;;;;;;;10.18;1.90;;;11.90;99.90;;;;;;5072901;28;20056;-62
2022/11/07 07:13:15;;;;;;;12.68;2.75;;;12.00;99.90;;;;;;5071781;28;20446;-62
2022/11/07 07:15:40;;;;;;;9.82;2.90;;;12.00;99.90;;;;;;5072261;28;20035;-63
2022/11/07 07:18:06;;;;;;;11.55;1.85;;;12.00;99.90;;;;;;5064624;28;20439;-62
2022/11/07 07:20:31;;;;;;;14.40;2.20;;;12.00;99.90;;;;;;5068992;28;20083;-62
2022/11/07 07:22:57;;;;;;;14.30;2.55;;;12.10;99.90;;;;;;5071499;28;20036;-62
2022/11/07 07:25:25;;;;;;;13.30;2.85;;;12.10;99.90;;;;;;5071748;28;20037;-62
2022/11/07 07:27:51;;;;;;;7.45;1.80;;;12.10;99.90;;;;;;5069165;28;20043;-62
2022/11/07 07:30:16;;;;;;;11.70;2.15;;;12.10;99.90;;;;;;5069267;28;20032;-62
2022/11/07 07:32:42;;;;;;;15.63;2.08;;;12.20;99.90;;;;;;5069543;28;20028;-62
2022/11/07 07:35:08;;;;;;;8.85;1.95;;;12.20;99.90;;;;;;5069775;28;20477;-63
2022/11/07 07:37:34;;;;;;;8.63;1.70;;;12.20;99.90;;;;;;5063053;28;20155;-63
2022/11/07 07:39:59;;;;;;;10.88;1.98;;;12.30;99.90;;;;;;5070890;28;20111;-63
2022/11/07 07:42:25;;;;;;;8.95;2.00;;;12.30;99.90;;;;;;5071081;28;20063;-62
2022/11/07 07:44:50;;;;;;;12.48;2.10;;;12.30;99.90;;;;;;5071933;28;20492;-62
2022/11/07 07:47:16;;;;;;;11.23;1.95;;;12.30;99.90;;;;;;5072635;28;20602;-63
2022/11/07 07:49:41;;;;;;;9.10;1.83;;;12.30;99.90;;;;;;5061665;28;20016;-62
2022/11/07 07:52:07;;;;;;;13.32;2.33;;;12.40;99.90;;;;;;5070688;28;20020;-63
2022/11/07 07:54:32;;;;;;;9.25;1.70;;;12.40;99.90;;;;;;5069290;28;20385;-62
2022/11/07 07:56:58;;;;;;;11.93;2.13;;;12.40;99.90;;;;;;5068361;28;20036;-63
2022/11/07 07:59:23;;;;;;;10.80;2.10;;;12.40;99.90;;;;;;5070345;28;20089;-62
2022/11/07 08:01:49;;;;;;;16.38;2.05;;;12.50;99.90;;;;;;5071037;28;20028;-63
2022/11/07 08:04:14;;;;;;;7.47;1.88;;;12.60;99.90;;;;;;5070499;28;20121;-63
2022/11/07 08:06:40;;;;;;;11.38;2.75;;;12.60;99.90;;;;;;5070487;28;20393;-62
2022/11/07 08:09:05;;;;;;;9.13;1.95;;;12.70;99.90;;;;;;5071811;28;20035;-63
2022/11/07 08:11:31;;;;;;;12.20;2.03;;;12.70;99.90;;;;;;5070642;28;20070;-62
2022/11/07 08:13:57;;;;;;;9.32;1.77;;;12.80;99.90;;;;;;5070751;28;20369;-62
2022/11/07 08:16:22;;;;;;;7.20;1.98;;;12.80;99.90;;;;;;5070951;28;20090;-63
2022/11/07 08:18:47;;;;;;;12.10;2.55;;;12.80;99.90;;;;;;5070879;28;20107;-63
2022/11/07 08:21:13;;;;;;;12.02;2.42;;;12.90;99.90;;;;;;5068382;28;20086;-62
2022/11/07 08:23:38;;;;;;;10.25;1.58;;;12.90;99.90;;;;;;5070516;28;20039;-62
2022/11/07 08:26:04;;;;;;;7.75;1.50;;;12.90;99.90;;;;;;5071117;28;20071;-62
2022/11/07 08:28:34;;;;;;;19.52;2.63;;;12.90;99.90;;;;;;5070790;28;20017;-63
2022/11/07 08:31:10;;;;;;;8.93;1.67;;;13.00;99.90;;;;;;5070625;28;20015;-63
2022/11/07 08:33:37;;;;;;;16.73;3.63;;;13.00;99.90;;;;;;5070160;28;20025;-63
2022/11/07 08:36:04;;;;;;;10.70;1.65;;;13.00;99.90;;;;;;5070129;28;20028;-62
2022/11/07 08:38:32;;;;;;;8.38;1.70;;;13.00;99.90;;;;;;5070439;28;20020;-62
2022/11/07 08:40:58;;;;;;;9.10;2.42;;;13.10;99.90;;;;;;5070098;28;20021;-63
2022/11/07 08:43:23;;;;;;;6.82;1.52;;;13.20;99.90;;;;;;5067626;28;20056;-62
2022/11/07 08:45:50;;;;;;;12.10;2.40;;;13.20;99.90;;;;;;5070275;28;20024;-63
2022/11/07 08:48:16;;;;;;;9.45;2.20;;;13.20;99.90;;;;;;5070548;28;20028;-63
2022/11/07 08:50:43;;;;;;;9.75;2.00;;;13.30;99.90;;;;;;5070506;28;20020;-62
2022/11/07 08:53:08;;;;;;;10.38;1.85;;;13.30;99.90;;;;;;5070479;28;20210;-63
2022/11/07 08:55:34;;;;;;;10.88;2.08;;;13.30;99.90;;;;;;5073044;28;20028;-62
2022/11/07 08:58:05;;;;;;;9.18;1.55;;;13.40;99.90;;;;;;5072282;28;20039;-62
2022/11/07 09:00:31;;;;;;;9.68;1.58;;;13.40;99.90;;;;;;5071444;28;20104;-63
2022/11/07 09:03:04;;;;;;;6.25;1.27;;;13.40;99.90;;;;;;5074464;28;20103;-62
2022/11/07 09:05:30;;;;;;;9.10;1.50;;;13.50;99.90;;;;;;5073777;28;20388;-63
2022/11/07 09:07:55;;;;;;;8.10;1.50;;;13.50;99.90;;;;;;5069998;28;20469;-63
2022/11/07 09:10:21;;;;;;;7.85;1.67;;;13.50;99.90;;;;;;5070063;28;20103;-62
2022/11/07 09:12:48;;;;;;;8.38;1.70;;;13.50;99.90;;;;;;5072843;28;20024;-63
2022/11/07 09:15:15;;;;;;;9.82;1.67;;;13.50;99.90;;;;;;5074009;28;20020;-63
2022/11/07 09:17:41;;;;;;;8.73;1.85;;;13.50;99.90;;;;;;5074443;28;20024;-63
2022/11/07 09:20:07;;;;;;;9.98;2.03;;;13.60;99.90;;;;;;5074511;28;20082;-63
2022/11/07 09:22:33;;;;;;;14.00;1.67;;;13.60;99.90;;;;;;5073711;28;20549;-63
2022/11/07 09:24:58;;;;;;;11.07;1.98;;;13.60;99.90;;;;;;5074804;28;20032;-63
2022/11/07 09:27:24;;;;;;;11.32;1.75;;;13.70;99.90;;;;;;5074790;28;20032;-63
2022/11/07 09:29:49;;;;;;;9.65;1.80;;;13.70;99.90;;;;;;5075133;28;20079;-63
2022/11/07 09:32:15;;;;;;;10.68;1.50;;;13.80;99.90;;;;;;5074351;28;20536;-63
2022/11/07 09:34:43;;;;;;;9.57;1.55;;;13.80;99.90;;;;;;5073149;28;20384;-63
2022/11/07 09:37:09;;;;;;;7.72;1.55;;;13.90;99.90;;;;;;5073542;28;20140;-63
2022/11/07 09:39:35;;;;;;;10.13;1.70;;;13.90;99.90;;;;;;5072129;28;20572;-63
2022/11/07 09:42:38;;;;;;;10.02;1.75;;;13.90;99.90;;;;;;5073975;28;20075;-63
2022/11/07 09:45:04;;;;;;;9.50;1.80;;;14.00;99.90;;;;;;5064259;28;20439;-63
2022/11/07 09:47:38;;;;;;;10.70;1.58;;;13.90;99.90;;;;;;5073163;28;20104;-63
2022/11/07 09:50:23;;;;;;;11.68;2.20;;;14.00;99.90;;;;;;5064992;28;20453;-63
2022/11/07 09:52:57;;;;;;;11.35;2.88;;;14.00;99.90;;;;;;5073816;28;20047;-63
2022/11/07 09:55:27;;;;;;;12.63;1.80;;;14.00;99.90;;;;;;5068119;28;20029;-63
2022/11/07 09:57:59;;;;;;;14.02;2.45;;;14.00;99.90;;;;;;5066080;28;20499;-63
2022/11/07 10:00:28;;;;;;;9.50;1.50;;;14.00;99.90;;;;;;5070224;28;20040;-63
2022/11/07 10:02:55;;;;;;;14.70;2.30;;;13.90;99.90;;;;;;5067679;28;20029;-63
2022/11/07 10:05:41;;;;;;;12.63;2.13;;;13.90;99.90;;;;;;5072033;28;20082;-64
2022/11/07 10:08:10;;;;;;;7.90;1.67;;;14.00;99.90;;;;;;5074297;28;20180;-63
2022/11/07 10:10:59;;;;;;;10.90;1.90;;;13.90;99.90;;;;;;5071428;28;20029;-63
2022/11/07 10:13:56;;;;;;;6.65;1.83;;;13.90;99.90;;;;;;5064592;28;20071;-64
2022/11/07 10:16:27;;;;;;;10.07;1.80;;;14.00;99.90;;;;;;5071595;28;20115;-63
2022/11/07 10:19:30;;;;;;;9.93;2.20;;;14.00;99.90;;;;;;5072531;28;20032;-63
2022/11/07 10:22:23;;;;;;;10.50;2.03;;;14.20;99.90;;;;;;5072272;28;20028;-63
2022/11/07 10:25:19;;;;;;;11.85;1.95;;;14.40;99.90;;;;;;5071370;28;20024;-63
2022/11/07 10:27:49;;;;;;;10.80;2.83;;;14.30;99.90;;;;;;5070734;28;20020;-63
2022/11/07 10:30:18;;;;;;;9.43;2.05;;;14.30;99.90;;;;;;5072774;28;20020;-63
2022/11/07 10:33:05;;;;;;;9.02;2.20;;;14.30;99.90;;;;;;5072977;28;20411;-63
2022/11/07 10:35:34;;;;;;;9.32;1.92;;;14.40;99.90;;;;;;5071728;28;20041;-63
2022/11/07 10:38:03;;;;;;;8.83;2.37;;;14.30;99.90;;;;;;5072329;28;20095;-63
2022/11/07 10:40:40;;;;;;;9.68;2.22;;;14.30;99.90;;;;;;5072836;28;20263;-64
2022/11/07 10:43:13;;;;;;;9.23;2.17;;;14.30;99.90;;;;;;5071193;28;20135;-63
2022/11/07 10:45:39;;;;;;;9.13;2.58;;;14.30;99.90;;;;;;5069739;28;20025;-63
2022/11/07 10:48:05;;;;;;;9.75;2.60;;;14.30;99.90;;;;;;5067452;28;20044;-63
2022/11/07 10:50:34;;;;;;;12.85;1.90;;;14.30;99.90;;;;;;5066656;28;20067;-63
2022/11/07 10:53:04;;;;;;;9.88;1.98;;;14.30;99.90;;;;;;5073608;28;20048;-63
2022/11/07 10:55:40;;;;;;;;;;;14.30;99.90;;;;;;5073878;28;20091;-63
2022/11/07 10:58:06;;;;;;;11.63;2.00;;;14.20;99.90;;;;;;5073334;28;19904;-63
2022/11/07 11:00:34;;;;;;;10.25;1.77;;;14.30;99.90;;;;;;5070541;28;20295;-63
2022/11/07 11:02:59;;;;;;;9.93;2.00;;;14.30;99.90;;;;;;5053505;28;20027;-63
2022/11/07 11:05:45;;;;;;;11.25;2.33;;;14.30;99.90;;;;;;5069802;28;20029;-63
2022/11/07 11:08:30;;;;;;;13.27;2.00;;;14.40;99.90;;;;;;5080375;28;20027;-63
2022/11/07 11:10:56;;;;;;;11.52;1.75;;;14.40;99.90;;;;;;5072288;28;20434;-63
2022/11/07 11:13:31;;;;;;;10.23;2.55;;;14.40;99.90;;;;;;5071683;28;20460;-63
2022/11/07 11:15:58;;;;;;;9.52;2.15;;;14.50;99.90;;;;;;5071784;28;20017;-63
2022/11/07 11:18:24;;;;;;;16.67;2.00;;;14.50;99.90;;;;;;5072297;28;20093;-63
2022/11/07 11:20:57;;;;;;;11.05;2.30;;;14.50;99.90;;;;;;5071232;28;20476;-63
2022/11/07 11:23:26;;;;;;;10.00;2.42;;;14.50;99.90;;;;;;5071125;28;20024;-63
2022/11/07 11:25:59;;;;;;;10.43;1.90;;;14.50;99.90;;;;;;5072960;28;20032;-63
2022/11/07 11:28:42;;;;;;;9.68;1.70;;;14.60;99.90;;;;;;5070855;28;20619;-63
2022/11/07 11:31:42;;;;;;;11.60;1.77;;;14.50;99.90;;;;;;5072903;28;20397;-63
2022/11/07 11:34:18;;;;;;;10.32;2.10;;;14.60;99.90;;;;;;5068064;28;20048;-64
2022/11/07 11:37:10;;;;;;;9.18;1.90;;;14.60;99.90;;;;;;5071299;28;20441;-63
2022/11/07 11:39:46;;;;;;;10.00;1.77;;;14.70;99.90;;;;;;5069903;28;20032;-64
2022/11/07 11:42:49;;;;;;;12.20;2.40;;;14.80;99.90;;;;;;5071502;28;20099;-63
2022/11/07 11:45:44;;;;;;;12.00;2.33;;;14.80;99.90;;;;;;5069986;28;20064;-63
2022/11/07 11:48:27;;;;;;;12.27;2.20;;;14.90;99.90;;;;;;5070878;28;20031;-63
2022/11/07 11:51:17;;;;;;;8.38;1.83;;;14.90;99.90;;;;;;5071149;28;20485;-63
2022/11/07 11:53:43;;;;;;;15.27;2.42;;;14.90;99.90;;;;;;5068846;28;20066;-63
2022/11/07 11:56:32;;;;;;;10.65;1.70;;;14.90;99.90;;;;;;5062657;28;20052;-63
2022/11/07 11:59:01;;;;;;;;;;;14.90;99.90;;;;;;5071130;28;20051;-63
2022/11/07 12:01:42;;;;;;;11.00;1.80;;;14.90;99.90;;;;;;5070824;28;19904;-64
2022/11/07 12:04:45;;;;;;;12.50;2.42;;;14.90;99.90;;;;;;5070275;28;20020;-63
2022/11/07 12:07:40;;;;;;;10.23;1.90;;;14.90;99.90;;;;;;5065523;28;20107;-64
2022/11/07 12:10:31;;;;;;;7.00;1.52;;;15.00;99.90;;;;;;5080121;28;20029;-63
2022/11/07 12:13:15;;;;;;;9.15;2.17;;;15.10;99.90;;;;;;5061581;28;20516;-63
2022/11/07 12:15:55;;;;;;;10.05;1.73;;;15.20;99.90;;;;;;5065966;28;20028;-64
2022/11/07 12:18:46;;;;;;;12.75;2.03;;;15.30;99.90;;;;;;5071679;28;20472;-64
2022/11/07 12:21:27;;;;;;;14.75;2.38;;;15.30;99.90;;;;;;5064710;28;20511;-63
2022/11/07 12:24:14;;;;;;;10.80;2.40;;;15.40;99.90;;;;;;5060659;28;20049;-64
2022/11/07 12:26:59;;;;;;;10.80;2.38;;;15.50;99.90;;;;;;5070038;28;20543;-63
2022/11/07 12:30:01;;;;;;;9.60;1.60;;;15.60;99.90;;;;;;5070128;28;20111;-63
2022/11/07 12:32:43;;;;;;;8.82;1.33;;;16.00;99.70;;;;;;5072983;28;20078;-64
2022/11/07 12:35:34;;;;;;;8.52;1.60;;;16.20;99.50;;;;;;5074889;28;20491;-63
2022/11/07 12:38:37;;;;;;;10.82;2.05;;;16.30;98.60;;;;;;5073963;28;20509;-64
2022/11/07 12:41:22;;;;;;;7.00;1.33;;;16.40;98.10;;;;;;5074318;28;20055;-63
2022/11/07 12:44:09;;;;;;;9.85;1.45;;;16.40;97.80;;;;;;5074611;28;20041;-64
2022/11/07 12:47:19;;;;;;;9.02;2.05;;;16.30;97.60;;;;;;5073268;28;20086;-63
2022/11/07 12:49:45;;;;;;;;;;;16.30;97.80;;;;;;5036829;28;20039;-64
2022/11/07 12:52:33;;;;;;;10.98;2.05;;;16.10;97.60;;;;;;5074652;28;19908;-64
2022/11/07 12:55:03;;;;;;;6.35;1.38;;;16.10;97.90;;;;;;5073866;28;20074;-64
2022/11/07 12:57:37;;;;;;;12.38;1.73;;;16.20;97.90;;;;;;5056603;28;20036;-64
2022/11/07 13:00:36;;;;;;;9.07;1.73;;;16.20;97.30;;;;;;5072422;28;20020;-63
2022/11/07 13:03:04;;;;;;;11.15;1.75;;;16.20;97.20;;;;;;5053819;28;20028;-63
2022/11/07 13:05:56;;;;;;;7.78;1.58;;;16.10;97.30;;;;;;5072278;28;20464;-64
2022/11/07 13:08:39;;;;;;;9.05;1.77;;;16.20;97.50;;;;;;5071917;28;20055;-64
2022/11/07 13:11:23;;;;;;;13.93;2.08;;;16.20;97.60;;;;;;5072162;28;20020;-64
2022/11/07 13:14:13;;;;;;;9.63;1.95;;;16.10;97.60;;;;;;5072093;28;20477;-63